Data for 10/29/2015

Time Sea-Level Adjusted Pressure Absolute Pressure Temperature Relative Humidity Dew Point   
(mb) (inHg) (mb) (inHg) (C) (F) (%) (C) (F)
00:05 1014 29.94 843 24.89 3 37.3 63 -3.5 25.7
00:10 1014 29.94 843 24.89 2.9 37.2 62 -3.6 25.5
00:15 1014 29.94 843 24.89 3.1 37.6 61 -3.7 25.3
00:20 1014 29.94 843 24.89 3.1 37.5 61 -3.7 25.4
00:25 1014 29.94 843 24.89 3.1 37.5 60 -3.8 25.1
00:30 1014 29.94 843 24.89 3.1 37.5 60 -4 24.8
00:35 1014 29.94 843 24.89 3 37.4 63 -3.3 26
00:40 1014 29.94 843 24.89 2.4 36.3 65 -3.5 25.7
00:45 1014 29.94 843 24.89 2.1 35.9 66 -3.5 25.7
00:50 1014 29.94 843 24.89 1.9 35.4 68 -3.5 25.7
00:55 1014 29.94 843 24.89 1.8 35.2 67 -3.7 25.3
01:00 1014 29.94 843 24.89 2.2 35.9 65 -3.8 25.1
01:05 1014 29.94 843 24.89 2.1 35.7 65 -3.9 25
01:10 1014 29.94 843 24.89 2.3 36.1 62 -4.2 24.5
01:15 1014 29.94 843 24.89 2.5 36.5 62 -4 24.7
01:20 1014 29.94 843 24.89 2.4 36.4 61 -4.2 24.4
01:25 1014 29.94 843 24.89 2.5 36.5 61 -4.1 24.6
01:30 1014 29.94 843 24.89 2.3 36.2 62 -4.2 24.5
01:35 1014 29.94 843 24.89 2.3 36.2 62 -4.2 24.4
01:40 1014 29.94 843 24.89 2.3 36.2 62 -4.3 24.3
01:45 1014 29.94 843 24.89 2.2 36 63 -4.1 24.6
01:50 1014 29.94 843 24.89 2 35.6 64 -4.1 24.7
01:55 1014 29.94 843 24.89 1.9 35.4 64 -4.1 24.6
02:00 1014 29.94 843 24.89 1.8 35.2 64 -4.4 24.1
02:05 1014 29.94 843 24.89 2.3 36.1 62 -4.4 24.2
02:10 1014 29.94 843 24.89 2.3 36.1 63 -4.1 24.7
02:15 1014 29.94 843 24.89 2.2 35.9 62 -4.3 24.3
02:20 1014 29.94 843 24.89 2.2 36 63 -4 24.7
02:25 1014 29.94 843 24.89 1.9 35.4 65 -4.1 24.6
02:30 1014 29.94 843 24.89 1.7 35 65 -4.2 24.5
02:35 1014 29.94 843 24.89 1.7 35 64 -4.4 24.1
02:40 1014 29.94 843 24.89 1.9 35.4 64 -4.3 24.2
02:45 1014 29.94 843 24.89 2 35.6 62 -4.4 24.1
02:50 1014 29.94 843 24.89 2.1 35.8 62 -4.4 24.1
02:55 1014 29.94 843 24.89 2.2 36 61 -4.5 23.8
03:00 1014 29.94 843 24.89 2.2 36 63 -4.1 24.5
03:05 1014 29.94 843 24.89 1.7 35.1 65 -4.1 24.6
03:10 1014 29.94 843 24.89 1.3 34.3 66 -4.4 24.2
03:15 1014 29.94 843 24.89 1.3 34.3 65 -4.5 23.9
03:20 1014 29.94 843 24.89 1.4 34.5 65 -4.6 23.8
03:25 1014 29.94 843 24.89 1.3 34.4 66 -4.3 24.2
03:30 1014 29.94 843 24.89 1.1 34.1 67 -4.3 24.2
03:35 1014 29.94 843 24.89 1.2 34.1 67 -4.3 24.2
03:40 1014 29.94 843 24.89 1 33.7 69 -4.2 24.5
03:45 1014 29.94 843 24.89 0.7 33.3 68 -4.6 23.7
03:50 1014 29.94 843 24.89 0.9 33.7 68 -4.4 24.2
03:55 1014 29.94 843 24.89 0.9 33.6 67 -4.6 23.7
04:00 1014 29.94 843 24.89 1 33.8 66 -4.7 23.6
04:05 1014 29.94 843 24.89 1.2 34.1 66 -4.6 23.8
04:10 1014 29.94 843 24.89 1.1 34 66 -4.5 23.9
04:15 1014 29.94 843 24.89 1.1 33.9 66 -4.6 23.8
04:20 1014 29.94 843 24.89 1 33.9 66 -4.6 23.8
04:25 1014 29.94 843 24.89 0.9 33.7 67 -4.5 23.9
04:30 1014 29.94 843 24.89 0.9 33.6 66 -4.7 23.6
04:35 1014 29.94 843 24.89 1.1 34 66 -4.5 23.9
04:40 1014 29.94 843 24.89 1.1 34 66 -4.5 23.9
04:45 1014 29.94 843 24.89 0.9 33.7 68 -4.3 24.2
04:50 1014 29.94 843 24.89 0.8 33.5 69 -4.3 24.3
04:55 1014 29.94 843 24.89 0.9 33.7 68 -4.2 24.4
05:00 1014 29.94 843 24.89 1 33.7 68 -4.2 24.4
05:05 1014 29.94 843 24.89 0.9 33.7 69 -4.1 24.6
05:10 1014 29.94 843 24.89 0.7 33.2 69 -4.3 24.2
05:15 1014 29.94 843 24.89 0.7 33.3 69 -4.4 24
05:20 1014 29.94 843 24.89 1 33.8 67 -4.5 23.9
05:25 1014 29.94 843 24.89 1.2 34.2 66 -4.4 24.1
05:30 1014 29.94 843 24.89 1.4 34.5 65 -4.5 23.9
05:35 1014 29.94 843 24.89 1.4 34.6 65 -4.5 24
05:40 1014 29.94 843 24.89 1.4 34.5 66 -4.4 24.1
05:45 1014 29.94 843 24.89 1.3 34.3 66 -4.3 24.3
05:50 1014 29.94 843 24.89 1.3 34.4 66 -4.3 24.2
05:55 1014 29.94 843 24.89 1.4 34.5 66 -4.4 24.1
06:00 1014 29.94 843 24.89 1.4 34.5 66 -4.2 24.5
06:05 1014 29.94 843 24.89 1.3 34.4 67 -4.1 24.5
06:10 1014 29.94 843 24.89 1.3 34.3 68 -4 24.7
06:15 1014 29.94 843 24.89 1.2 34.1 68 -4.1 24.6
06:20 1014 29.94 843 24.89 1.2 34.2 68 -4.1 24.7
06:25 1014 29.94 843 24.89 1.5 34.6 67 -3.9 24.9
06:30 1014 29.94 843 24.89 1.4 34.4 68 -3.8 25.1
06:35 1014 29.94 843 24.89 1.4 34.5 67 -4 24.8
06:40 1014 29.94 843 24.89 1.9 35.3 65 -3.9 24.9
06:45 1014 29.94 843 24.89 1.9 35.4 67 -3.7 25.3
06:50 1014 29.94 843 24.89 1.6 34.9 68 -3.7 25.4
06:55 1014 29.94 843 24.89 1.5 34.7 69 -3.6 25.5
07:00 1014 29.94 843 24.89 1.4 34.4 69 -3.7 25.3
07:05 1014 29.94 843 24.89 1.5 34.7 69 -3.6 25.5
07:10 1014 29.94 843 24.89 1.5 34.7 69 -3.5 25.7
07:15 1014 29.94 843 24.89 1.5 34.7 69 -3.6 25.5
07:20 1014 29.94 843 24.89 1.6 34.9 68 -3.6 25.5
07:25 1014 29.94 843 24.89 1.7 35.1 66 -3.9 25
07:30 1014 29.94 843 24.89 2.1 35.7 65 -3.9 25.1
07:35 1014 29.94 844 24.92 2.2 35.9 65 -3.7 25.4
07:40 1014 29.94 844 24.92 2.2 35.9 65 -3.8 25.2
07:45 1014 29.94 844 24.92 2.3 36.1 64 -3.7 25.3
07:50 1014 29.94 844 24.92 2.4 36.3 63 -3.9 25
07:55 1014 29.94 844 24.92 2.5 36.5 63 -3.8 25.1
08:00 1015 29.97 844 24.92 2.6 36.6 63 -3.7 25.4
08:05 1015 29.97 844 24.92 2.7 36.8 63 -3.7 25.3
08:10 1015 29.97 844 24.92 2.9 37.1 63 -3.5 25.6
08:15 1015 29.97 844 24.92 2.9 37.2 63 -3.4 25.9
08:20 1015 29.97 844 24.92 2.9 37.3 64 -3.2 26.2
08:25 1015 29.97 844 24.92 3 37.4 64 -3.1 26.4
08:30 1015 29.97 844 24.92 2.9 37.3 66 -2.8 26.9
08:35 1015 29.97 844 24.92 3.1 37.5 69 -2.1 28.2
08:40 1015 29.97 844 24.92 3.3 37.9 67 -2.3 27.9
08:45 1015 29.97 844 24.92 3.4 38.2 68 -1.9 28.6
08:50 1015 29.97 844 24.92 3.6 38.4 68 -1.8 28.8
08:55 1015 29.97 844 24.92 3.6 38.5 69 -1.5 29.2
09:00 1015 29.97 844 24.92 3.6 38.5 62 -2.9 26.7
09:05 1015 29.97 844 24.92 3.6 38.4 67 -1.9 28.5
09:10 1015 29.97 844 24.92 3.7 38.6 70 -1.3 29.6
09:15 1015 29.97 844 24.92 3.6 38.6 72 -0.9 30.3
09:20 1015 29.97 844 24.92 3.6 38.5 73 -0.7 30.7
09:25 1015 29.97 844 24.92 3.6 38.6 72 -1 30.2
09:30 1015 29.97 844 24.92 3.7 38.6 73 -0.7 30.7
09:35 1015 29.97 844 24.92 3.7 38.7 73 -0.7 30.7
09:40 1015 29.97 844 24.92 3.3 38 75 -0.6 30.9
09:45 1015 29.97 844 24.92 3.2 37.8 77 -0.4 31.3
09:50 1015 29.97 844 24.92 3.3 37.9 78 -0.2 31.6
09:55 1015 29.97 844 24.92 3.3 37.9 78 -0.3 31.5
10:00 1015 29.97 844 24.92 3.3 37.9 79 -0.1 31.9
10:05 1015 29.97 844 24.92 3.4 38.1 78 -0.2 31.7
10:10 1015 29.97 844 24.92 3.6 38.4 77 -0.1 31.8
10:15 1015 29.97 844 24.92 3.7 38.6 77 0 32
10:20 1015 29.97 844 24.92 3.8 38.8 75 -0.2 31.6
10:25 1015 29.97 844 24.92 3.8 38.8 73 -0.6 31
10:30 1015 29.97 845 24.95 3.7 38.7 73 -0.6 30.8
10:35 1015 29.97 845 24.95 3.8 38.8 76 0 32.1
10:40 1015 29.97 845 24.95 4 39.2 77 0.3 32.6
10:45 1015 29.97 845 24.95 4.3 39.7 75 0.3 32.5
10:50 1015 29.97 845 24.95 4.3 39.8 75 0.3 32.5
10:55 1015 29.97 845 24.95 4.1 39.4 78 0.5 33
11:00 1015 29.97 845 24.95 3.7 38.7 77 0.2 32.3
11:05 1015 29.97 845 24.95 3.6 38.4 81 0.7 33.2
11:10 1015 29.97 845 24.95 3.7 38.6 81 0.6 33.1
11:15 1015 29.97 845 24.95 3.5 38.4 83 1 33.8
11:20 1015 29.97 845 24.95 3.7 38.6 82 0.9 33.7
11:25 1015 29.97 845 24.95 3.9 39 79 0.5 32.9
11:30 1015 29.97 845 24.95 3.9 39.1 79 0.6 33.1
11:35 1015 29.97 844 24.92 3.8 38.9 79 0.5 32.9
11:40 1015 29.97 844 24.92 3.9 39.1 79 0.7 33.2
11:45 1015 29.97 844 24.92 4 39.2 81 0.9 33.7
11:50 1015 29.97 844 24.92 4.1 39.4 79 0.8 33.4
11:55 1015 29.97 844 24.92 4.1 39.4 79 0.7 33.3
12:00 1015 29.97 844 24.92 4.3 39.7 81 1.3 34.3
12:05 1015 29.97 844 24.92 4.6 40.2 78 1.1 33.9
12:10 1015 29.97 844 24.92 4.5 40.1 79 1.2 34.1
12:15 1015 29.97 844 24.92 4.8 40.7 78 1.3 34.3
12:20 1015 29.97 844 24.92 5.2 41.3 77 1.5 34.8
12:25 1015 29.97 844 24.92 5.6 42.1 76 1.6 34.9
12:30 1015 29.97 844 24.92 5.8 42.4 72 1.1 33.9
12:35 1015 29.97 844 24.92 5.8 42.4 74 1.5 34.8
12:40 1015 29.97 844 24.92 6 42.8 73 1.6 34.8
12:45 1015 29.97 844 24.92 5.9 42.6 73 1.4 34.5
12:50 1015 29.97 844 24.92 6 42.9 73 1.6 34.9
12:55 1015 29.97 844 24.92 6.4 43.5 73 1.9 35.3
13:00 1015 29.97 844 24.92 6.6 43.9 73 2 35.6
13:05 1015 29.97 844 24.92 6.6 43.9 73 2.1 35.8
13:10 1015 29.97 844 24.92 6.8 44.2 71 1.9 35.5
13:15 1015 29.97 844 24.92 6.9 44.3 73 2.3 36.2
13:20 1015 29.97 844 24.92 7 44.6 69 1.8 35.2
13:25 1015 29.97 844 24.92 7.1 44.7 70 2.1 35.7
13:30 1014 29.94 844 24.92 7.1 44.8 71 2.3 36.1
13:35 1015 29.97 844 24.92 7 44.5 70 1.9 35.4
13:40 1014 29.94 844 24.92 6.7 44.1 70 1.7 35
13:45 1014 29.94 844 24.92 6.6 43.8 70 1.6 34.8
13:50 1014 29.94 844 24.92 6.6 43.8 72 1.9 35.5
13:55 1014 29.94 844 24.92 6.7 44 72 2 35.5
14:00 1014 29.94 844 24.92 6.4 43.5 74 2 35.7
14:05 1014 29.94 844 24.92 6.4 43.6 72 1.7 35.1
14:10 1014 29.94 844 24.92 6.6 43.8 69 1.4 34.5
14:15 1014 29.94 844 24.92 6.6 44 70 1.6 34.9
14:20 1014 29.94 844 24.92 6.7 44.1 70 1.7 35
14:25 1014 29.94 844 24.92 6.8 44.3 70 1.7 35.1
14:30 1014 29.94 844 24.92 6.8 44.3 70 1.8 35.2
14:35 1014 29.94 844 24.92 6.9 44.5 69 1.6 34.9
14:40 1014 29.94 844 24.92 7.1 44.8 69 1.8 35.2
14:45 1014 29.94 843 24.89 7.2 45 67 1.5 34.8
14:50 1014 29.94 843 24.89 7.3 45.2 66 1.5 34.7
14:55 1014 29.94 843 24.89 7.5 45.4 66 1.5 34.8
15:00 1014 29.94 843 24.89 7.5 45.5 68 2 35.5
15:05 1014 29.94 843 24.89 7.5 45.5 67 1.7 35.1
15:10 1014 29.94 843 24.89 7.4 45.3 68 1.9 35.5
15:15 1014 29.94 844 24.92 7.2 44.9 68 1.7 35.1
15:20 1014 29.94 843 24.89 7.1 44.8 67 1.5 34.7
15:25 1014 29.94 843 24.89 7.3 45.1 66 1.3 34.3
15:30 1014 29.94 843 24.89 7.3 45.1 67 1.6 35
15:35 1014 29.94 843 24.89 7.3 45.2 66 1.3 34.4
15:40 1014 29.94 843 24.89 7.3 45.2 66 1.5 34.7
15:45 1014 29.94 843 24.89 7.3 45.2 65 1.2 34.1
15:50 1014 29.94 843 24.89 7.4 45.3 62 0.7 33.2
15:55 1014 29.94 843 24.89 7.5 45.4 62 0.6 33.1
16:00 1014 29.94 844 24.92 6.7 44.1 74 2.5 36.5
16:05 1014 29.94 844 24.92 5.4 41.6 81 2.4 36.3
16:10 1015 29.97 844 24.92 5 40.9 84 2.4 36.4
16:15 1015 29.97 844 24.92 4.8 40.7 83 2.2 36
16:20 1015 29.97 844 24.92 4.8 40.7 84 2.3 36.1
16:25 1015 29.97 844 24.92 4.8 40.6 83 2.1 35.8
16:30 1015 29.97 844 24.92 4.8 40.7 81 1.8 35.2
16:35 1015 29.97 844 24.92 4.8 40.6 81 1.8 35.2
16:40 1015 29.97 844 24.92 4.8 40.6 80 1.6 35
16:45 1015 29.97 844 24.92 4.8 40.6 80 1.6 34.8
16:50 1015 29.97 844 24.92 4.8 40.7 80 1.7 35
16:55 1015 29.97 844 24.92 4.8 40.7 80 1.7 35
17:00 1015 29.97 844 24.92 4.8 40.7 79 1.4 34.6
17:05 1015 29.97 844 24.92 5.1 41.1 78 1.5 34.6
17:10 1015 29.97 844 24.92 5.1 41.2 77 1.3 34.4
17:15 1015 29.97 844 24.92 5.1 41.2 76 1.2 34.2
17:20 1015 29.97 844 24.92 5.1 41.2 75 1.1 33.9
17:25 1015 29.97 844 24.92 5.1 41.1 76 1.2 34.1
17:30 1015 29.97 844 24.92 4.9 40.9 79 1.6 34.9
17:35 1015 29.97 844 24.92 4.7 40.5 78 1.2 34.2
17:40 1015 29.97 844 24.92 4.9 40.8 74 0.6 33.2
17:45 1015 29.97 844 24.92 5.2 41.3 73 0.7 33.3
17:50 1015 29.97 844 24.92 5.3 41.5 73 0.8 33.4
17:55 1015 29.97 844 24.92 5.2 41.3 73 0.8 33.4
18:00 1015 29.97 844 24.92 5.1 41.1 74 0.8 33.4
18:05 1015 29.97 844 24.92 5.1 41.2 72 0.6 33
18:10 1015 29.97 844 24.92 5.2 41.3 73 0.7 33.2
18:15 1015 29.97 844 24.92 5 41.1 75 1 33.8
18:20 1015 29.97 844 24.92 4.8 40.7 75 0.8 33.5
18:25 1015 29.97 844 24.92 4.8 40.7 76 0.9 33.7
18:30 1015 29.97 844 24.92 4.9 40.8 76 0.9 33.7
18:35 1015 29.97 844 24.92 4.9 40.8 75 0.8 33.4
18:40 1015 29.97 844 24.92 5 41 73 0.6 33.2
18:45 1015 29.97 844 24.92 5 41.1 73 0.6 33.2
18:50 1015 29.97 844 24.92 5.1 41.2 72 0.4 32.8
18:55 1015 29.97 844 24.92 5.2 41.3 71 0.4 32.7
19:00 1015 29.97 844 24.92 5.1 41.2 70 0.1 32.3
19:05 1015 29.97 844 24.92 5.2 41.3 71 0.3 32.5
19:10 1015 29.97 844 24.92 5.1 41.2 70 0.2 32.3
19:15 1015 29.97 844 24.92 5.2 41.3 70 0.1 32.2
19:20 1015 29.97 844 24.92 5.2 41.4 69 0.1 32.2
19:25 1015 29.97 844 24.92 5.2 41.4 71 0.5 32.9
19:30 1015 29.97 844 24.92 5.1 41.2 72 0.4 32.8
19:35 1015 29.97 844 24.92 5.1 41.3 72 0.4 32.8
19:40 1015 29.97 844 24.92 5.1 41.1 73 0.6 33.1
19:45 1015 29.97 844 24.92 5 41 73 0.6 33.1
19:50 1015 29.97 844 24.92 4.8 40.7 74 0.5 33
19:55 1015 29.97 844 24.92 4.8 40.7 72 0.3 32.5
20:00 1015 29.97 844 24.92 4.9 40.9 71 0.2 32.3
20:05 1015 29.97 844 24.92 5.1 41.1 69 -0.2 31.7
20:10 1015 29.97 844 24.92 5.2 41.4 68 -0.2 31.7
20:15 1015 29.97 844 24.92 5.3 41.5 66 -0.5 31.1
20:20 1015 29.97 845 24.95 5.3 41.6 67 -0.4 31.3
20:25 1015 29.97 844 24.92 5.3 41.5 66 -0.5 31.1
20:30 1015 29.97 844 24.92 5.2 41.4 65 -0.8 30.6
20:35 1015 29.97 844 24.92 5.3 41.5 65 -0.9 30.4
20:40 1015 29.97 844 24.92 5.3 41.5 66 -0.6 30.9
20:45 1015 29.97 845 24.95 5.2 41.4 65 -0.9 30.4
20:50 1015 29.97 845 24.95 5.3 41.5 65 -0.9 30.5
20:55 1015 29.97 845 24.95 5.3 41.6 63 -1.1 30
21:00 1015 29.97 845 24.95 5.4 41.7 63 -1 30.2
21:05 1015 29.97 845 24.95 5.3 41.6 63 -1.1 30.1
21:10 1015 29.97 845 24.95 5.3 41.6 64 -1 30.1
21:15 1015 29.97 845 24.95 5.3 41.5 63 -1.3 29.7
21:20 1016 30 845 24.95 5.4 41.8 62 -1.4 29.6
21:25 1016 30 845 24.95 5.6 42 62 -1.1 30
21:30 1016 30 845 24.95 5.5 41.9 62 -1.1 30
21:35 1016 30 845 24.95 5.4 41.7 63 -1 30.2
21:40 1016 30 845 24.95 5.4 41.7 64 -0.9 30.4
21:45 1016 30 845 24.95 5.4 41.6 66 -0.5 31.1
21:50 1016 30 845 24.95 5.2 41.4 67 -0.4 31.4
21:55 1016 30 845 24.95 5 41 68 -0.4 31.2
22:00 1016 30 845 24.95 4.9 40.8 70 -0.2 31.6
22:05 1016 30 845 24.95 4.8 40.6 68 -0.5 31.1
22:10 1016 30 845 24.95 4.6 40.3 69 -0.5 31.2
22:15 1016 30 845 24.95 4.6 40.2 71 -0.3 31.4
22:20 1016 30 845 24.95 4.4 39.9 70 -0.6 30.9
22:25 1016 30 845 24.95 4.3 39.8 70 -0.7 30.7
22:30 1016 30 845 24.95 4.4 39.8 68 -1.1 30
22:35 1016 30 845 24.95 4.4 39.8 67 -1.3 29.7
22:40 1016 30 845 24.95 4.4 40 66 -1.4 29.5
22:45 1016 30 845 24.95 4.5 40.2 66 -1.4 29.6
22:50 1016 30 845 24.95 4.7 40.4 64 -1.5 29.3
22:55 1016 30 845 24.95 4.8 40.6 64 -1.4 29.5
23:00 1016 30 845 24.95 4.8 40.6 65 -1.3 29.7
23:05 1016 30 845 24.95 4.8 40.7 63 -1.5 29.3
23:10 1016 30 845 24.95 4.9 40.9 63 -1.4 29.4
23:15 1016 30 845 24.95 4.8 40.7 64 -1.5 29.4
23:20 1016 30 845 24.95 4.8 40.6 63 -1.7 29
23:25 1016 30 845 24.95 5 40.9 61 -1.9 28.7
23:30 1016 30 845 24.95 5.1 41.1 61 -1.8 28.8
23:35 1016 30 845 24.95 5.1 41.2 62 -1.6 29.2
23:40 1016 30 845 24.95 5.1 41.2 64 -1.1 30.1
23:45 1016 30 845 24.95 4.6 40.3 68 -0.7 30.7
23:50 1016 30 845 24.95 4.2 39.5 70 -0.8 30.6
23:55 1016 30 845 24.95 4.3 39.7 69 -0.9 30.5
24:00 1016 30 845 24.95 4.3 39.8 69 -0.9 30.3